createdAt,value
2016-04-22T00:00:45.225Z,66.74
2016-04-22T00:01:45.213Z,66.74
2016-04-22T00:02:45.200Z,66.74
2016-04-22T00:03:45.035Z,66.46
2016-04-22T00:04:45.183Z,66.83
2016-04-22T00:05:45.201Z,67.12
2016-04-22T00:06:45.173Z,67.02
2016-04-22T00:07:45.176Z,67.02
2016-04-22T00:08:45.178Z,67.69
2016-04-22T00:09:45.166Z,67.59
2016-04-22T00:10:45.153Z,67.12
2016-04-22T00:11:45.155Z,67.02
2016-04-22T00:12:45.142Z,67.27
2016-04-22T00:13:45.130Z,67.65
2016-04-22T00:14:45.133Z,67.46
2016-04-22T00:15:45.635Z,67.75
2016-04-22T00:16:45.325Z,67.37
2016-04-22T00:17:45.093Z,67.37
2016-04-22T00:18:45.097Z,67.75
2016-04-22T00:19:45.177Z,68.41
2016-04-22T00:20:45.102Z,68.23
2016-04-22T00:21:45.651Z,68.23
2016-04-22T00:22:46.201Z,68.23
2016-04-22T00:23:45.047Z,68.32
2016-04-22T00:24:45.472Z,67.94
2016-04-22T00:25:45.052Z,67.85
2016-04-22T00:26:45.055Z,68.41
2016-04-22T00:27:45.043Z,68.23
2016-04-22T00:28:45.013Z,68.32
2016-04-22T00:29:45.016Z,68.41
2016-04-22T00:30:45.004Z,68.41
2016-04-22T00:31:45.022Z,68.7
2016-04-22T00:32:44.978Z,68.51
2016-04-22T00:33:44.996Z,68.6
2016-04-22T00:34:44.998Z,68.7
2016-04-22T00:35:44.971Z,68.79
2016-04-22T00:36:44.989Z,69.27
2016-04-22T00:37:44.977Z,69.08
2016-04-22T00:38:44.964Z,69.08
2016-04-22T00:39:44.935Z,69.27
2016-04-22T00:40:44.938Z,68.98
2016-04-22T00:41:44.925Z,69.08
2016-04-22T00:42:44.927Z,69.46
2016-04-22T00:43:44.929Z,69.27
2016-04-22T00:44:44.902Z,69.17
2016-04-22T00:45:44.904Z,68.98
2016-04-22T00:46:44.891Z,69.84
2016-04-22T00:47:44.893Z,69.55
2016-04-22T00:48:44.881Z,69.46
2016-04-22T00:49:44.867Z,69.71
2016-04-22T00:50:44.856Z,69.33
2016-04-22T00:51:44.701Z,69.52
2016-04-22T00:52:44.861Z,69.65
2016-04-22T00:53:44.848Z,70.18
2016-04-22T00:54:44.820Z,69.9
2016-04-22T00:55:44.822Z,69.99
2016-04-22T00:56:44.808Z,69.8
2016-04-22T00:57:44.811Z,69.8
2016-04-22T00:58:45.814Z,69.71
2016-04-22T00:59:44.801Z,70.09
2016-04-22T01:00:44.819Z,70.37
2016-04-22T01:01:44.806Z,70.47
2016-04-22T01:02:44.777Z,70.84
2016-04-22T01:03:45.124Z,70.84
2016-04-22T01:04:44.768Z,70.84
2016-04-22T01:05:44.755Z,70.75
2016-04-22T01:06:44.741Z,70.65
2016-04-22T01:07:45.197Z,71.13
2016-04-22T01:08:44.779Z,70.94
2016-04-22T01:09:44.718Z,71.13
2016-04-22T01:10:45.049Z,70.75
2016-04-22T01:11:45.115Z,71.51
2016-04-22T01:12:44.930Z,71.22
2016-04-22T01:13:44.682Z,71.13
2016-04-22T01:14:44.670Z,70.94
2016-04-22T01:15:44.673Z,71.03
2016-04-22T01:16:44.659Z,71.51
2016-04-22T01:17:44.646Z,71.41
2016-04-22T01:18:44.649Z,71.7
2016-04-22T01:19:44.636Z,71.8
2016-04-22T01:20:44.623Z,71.89
2016-04-22T01:21:44.626Z,72.55
2016-04-22T01:22:44.629Z,72.27
2016-04-22T01:23:44.615Z,71.95
2016-04-22T01:24:44.618Z,72.04
2016-04-22T01:25:44.606Z,72.14
2016-04-22T01:26:44.592Z,72.14
2016-04-22T01:27:44.595Z,72.42
2016-04-22T01:28:44.583Z,72.99
2016-04-22T01:29:44.881Z,72.52
2016-04-22T01:30:45.306Z,72.71
2016-04-22T01:31:44.731Z,72.89
2016-04-22T01:32:44.561Z,72.99
2016-04-22T01:33:44.533Z,73.18
2016-04-22T01:34:44.614Z,73.27
2016-04-22T01:35:44.508Z,72.99
2016-04-22T01:36:44.510Z,72.89
2016-04-22T01:37:44.497Z,72.99
2016-04-22T01:38:45.906Z,73.75
2016-04-22T01:39:44.533Z,73.37
2016-04-22T01:40:45.677Z,73.56
2016-04-22T01:41:45.743Z,73.46
2016-04-22T01:42:45.371Z,73.75
2016-04-22T01:43:44.451Z,73.84
2016-04-22T01:44:44.438Z,73.37
2016-04-22T01:45:44.612Z,73.75
2016-04-22T01:46:44.443Z,74.51
2016-04-22T01:47:44.430Z,73.94
2016-04-22T01:48:44.418Z,74.13
2016-04-22T01:49:44.404Z,74.32
2016-04-22T01:50:44.407Z,74.03
2016-04-22T01:51:44.379Z,74.32
2016-04-22T01:52:44.397Z,73.94
2016-04-22T01:53:44.368Z,74.41
2016-04-22T01:54:44.387Z,74.32
2016-04-22T01:55:44.343Z,74.32
2016-04-22T01:56:44.345Z,74.6
2016-04-22T01:57:44.348Z,74.51
2016-04-22T01:58:44.334Z,74.51
2016-04-22T01:59:44.337Z,74.69
2016-04-22T02:00:44.309Z,74.79
2016-04-22T02:01:44.312Z,75.17
2016-04-22T02:02:44.314Z,74.79
2016-04-22T02:03:44.302Z,74.88
2016-04-22T02:04:44.289Z,75.07
2016-04-22T02:05:43.541Z,74.88
2016-04-22T02:06:44.278Z,74.98
2016-04-22T02:07:44.266Z,75.17
2016-04-22T02:08:44.253Z,75.26
2016-04-22T02:09:44.255Z,75.26
2016-04-22T02:10:44.242Z,75.26
2016-04-22T02:11:44.230Z,75.55
2016-04-22T02:12:44.216Z,75.45
2016-04-22T02:13:44.219Z,75.45
2016-04-22T02:14:44.207Z,75.45
2016-04-22T02:15:44.193Z,75.55
2016-04-22T02:16:44.430Z,76.03
2016-04-22T02:17:44.183Z,76.12
2016-04-22T02:18:44.170Z,75.84
2016-04-22T02:19:44.157Z,75.74
2016-04-22T02:20:58.332Z,76.03
2016-04-22T02:21:44.147Z,75.93
2016-04-22T02:22:44.134Z,76.5
2016-04-22T02:23:44.137Z,76.59
2016-04-22T02:24:44.123Z,76.4
2016-04-22T02:25:45.017Z,76.4
2016-04-22T02:26:58.301Z,76.31
2016-04-22T02:27:44.788Z,76.12
2016-04-22T02:28:44.087Z,76.12
2016-04-22T02:29:44.090Z,76.68
2016-04-22T02:30:44.078Z,76.97
2016-04-22T02:31:44.064Z,76.97
2016-04-22T02:32:44.067Z,76.97
2016-04-22T02:33:44.100Z,76.97
2016-04-22T02:34:44.056Z,76.97
2016-04-22T02:35:44.044Z,76.87
2016-04-22T02:36:44.031Z,76.87
2016-04-22T02:37:44.018Z,76.87
2016-04-22T02:38:44.036Z,76.78
2016-04-22T02:39:44.008Z,77.06
2016-04-22T02:40:43.994Z,76.87
2016-04-22T02:41:43.982Z,77.35
2016-04-22T02:42:43.985Z,77.54
2016-04-22T02:43:43.972Z,77.45
2016-04-22T02:44:43.958Z,77.25
2016-04-22T02:45:43.946Z,77.92
2016-04-22T02:46:43.932Z,78.11
2016-04-22T02:47:43.935Z,77.64
2016-04-22T02:48:43.923Z,77.64
2016-04-22T02:49:43.909Z,77.54
2016-04-22T02:50:43.912Z,77.83
2016-04-22T02:51:43.962Z,77.83
2016-04-22T02:52:44.309Z,77.92
2016-04-22T02:53:44.576Z,77.97
2016-04-22T02:54:43.892Z,78.02
2016-04-22T02:55:43.878Z,78.16
2016-04-22T02:56:43.851Z,78.26
2016-04-22T02:57:44.026Z,78.35
2016-04-22T02:58:45.667Z,78.2
2016-04-22T02:59:43.828Z,78.58
2016-04-22T03:00:43.814Z,78.67
2016-04-22T03:01:43.817Z,79.25
2016-04-22T03:02:44.445Z,79.3
2016-04-22T03:03:43.822Z,78.96
2016-04-22T03:04:44.153Z,79.06
2016-04-22T03:05:43.811Z,78.96
2016-04-22T03:06:43.767Z,78.64
2016-04-22T03:07:43.770Z,78.67
2016-04-22T03:08:43.757Z,78.92
2016-04-22T03:09:43.744Z,79.34
2016-04-22T03:10:43.732Z,79.02
2016-04-22T03:11:43.735Z,79.15
2016-04-22T03:12:43.722Z,79.06
2016-04-22T03:13:43.693Z,79.25
2016-04-22T03:14:43.696Z,79.53
2016-04-22T03:15:43.699Z,79.21
2016-04-22T03:16:43.669Z,79.21
2016-04-22T03:17:43.672Z,79.58
2016-04-22T03:18:43.660Z,79.21
2016-04-22T03:19:43.662Z,79.39
2016-04-22T03:20:43.649Z,79.39
2016-04-22T03:21:43.637Z,79.3
2016-04-22T03:22:43.639Z,79.49
2016-04-22T03:23:43.626Z,79.49
2016-04-22T03:24:43.613Z,79.49
2016-04-22T03:25:43.616Z,79.3
2016-04-22T03:26:43.604Z,79.02
2016-04-22T03:27:43.434Z,79.02
2016-04-22T03:28:43.577Z,79.39
2016-04-22T03:29:43.564Z,79.68
2016-04-22T03:30:43.567Z,79.87
2016-04-22T03:31:43.554Z,79.87
2016-04-22T03:32:43.541Z,79.77
2016-04-22T03:33:43.544Z,79.68
2016-04-22T03:34:43.530Z,79.58
2016-04-22T03:35:44.267Z,79.58
2016-04-22T03:36:43.536Z,79.96
2016-04-22T03:37:43.507Z,80.25
2016-04-22T03:38:43.495Z,80.25
2016-04-22T03:39:43.481Z,79.96
2016-04-22T03:40:43.672Z,80.25
2016-04-22T03:41:43.675Z,80.06
2016-04-22T03:42:43.458Z,79.96
2016-04-22T03:43:43.446Z,79.96
2016-04-22T03:44:44.089Z,80.06
2016-04-22T03:45:43.435Z,80.25
2016-04-22T03:46:44.282Z,80.06
2016-04-22T03:47:43.425Z,80.34
2016-04-22T03:48:43.412Z,80.63
2016-04-22T03:49:43.415Z,80.44
2016-04-22T03:50:43.385Z,80.44
2016-04-22T03:51:43.388Z,80.44
2016-04-22T03:52:43.360Z,80.15
2016-04-22T03:53:43.363Z,80.53
2016-04-22T03:54:43.351Z,80.15
2016-04-22T03:55:43.354Z,80.91
2016-04-22T03:56:43.340Z,80.72
2016-04-22T03:57:43.343Z,80.63
2016-04-22T03:58:43.314Z,80.63
2016-04-22T03:59:43.317Z,81.2
2016-04-22T04:00:43.304Z,80.63
2016-04-22T04:01:43.306Z,80.06
2016-04-22T04:02:43.293Z,80.53
2016-04-22T04:03:43.295Z,80.15
2016-04-22T04:04:43.283Z,80.63
2016-04-22T04:05:43.270Z,80.63
2016-04-22T04:06:43.241Z,80.48
2016-04-22T04:07:43.901Z,80.06
2016-04-22T04:08:43.466Z,80.86
2016-04-22T04:09:43.219Z,80.86
2016-04-22T04:10:43.300Z,80.48
2016-04-22T04:11:43.458Z,80.76
2016-04-22T04:12:43.383Z,80.67
2016-04-22T04:13:43.197Z,80.67
2016-04-22T04:14:43.185Z,80.76
2016-04-22T04:15:43.172Z,80.76
2016-04-22T04:16:44.549Z,80.57
2016-04-22T04:17:43.146Z,80.48
2016-04-22T04:18:43.649Z,80.48
2016-04-22T04:19:43.354Z,80.48
2016-04-22T04:20:43.138Z,80.48
2016-04-22T04:21:43.360Z,80.48
2016-04-22T04:22:43.143Z,80.76
2016-04-22T04:23:43.168Z,80.57
2016-04-22T04:24:43.039Z,80.14
2016-04-22T04:25:43.236Z,81.27
2016-04-22T04:26:43.263Z,80.04
2016-04-22T04:27:43.278Z,80.62
2016-04-22T04:28:43.295Z,79.95
2016-04-22T04:29:43.298Z,79.71
2016-04-22T04:30:43.282Z,79.71
2016-04-22T04:31:43.299Z,79.42
2016-04-22T04:32:43.312Z,79.23
2016-04-22T04:33:43.305Z,79.04
2016-04-22T04:34:43.313Z,78.51
2016-04-22T04:35:43.288Z,78.51
2016-04-22T04:36:43.313Z,77.94
2016-04-22T04:37:43.302Z,77.56
2016-04-22T04:38:43.292Z,77.22
2016-04-22T04:39:43.281Z,76.46
2016-04-22T04:40:43.285Z,75.7
2016-04-22T04:41:43.290Z,74.85
2016-04-22T04:42:43.279Z,74.66
2016-04-22T04:43:43.266Z,74.22
2016-04-22T04:44:43.253Z,74.41
2016-04-22T04:45:43.272Z,73.46
2016-04-22T04:46:43.275Z,73.3
2016-04-22T04:47:43.262Z,72.92
2016-04-22T04:48:43.251Z,72.45
2016-04-22T04:49:43.238Z,71.82
2016-04-22T04:50:43.241Z,71.15
2016-04-22T04:51:43.228Z,70.97
2016-04-22T04:52:43.247Z,70.14
2016-04-22T04:53:43.219Z,69.19
2016-04-22T04:54:43.471Z,68.52
2016-04-22T04:55:43.474Z,67.51
2016-04-22T04:56:43.210Z,66.85
2016-04-22T04:57:43.854Z,66.46
2016-04-22T04:58:43.076Z,66.59
2016-04-22T04:59:43.203Z,65.64
2016-04-22T05:00:43.190Z,65.45
2016-04-22T05:01:43.209Z,64.78
2016-04-22T05:02:43.211Z,64.12
2016-04-22T05:03:43.948Z,63.54
2016-04-22T05:04:43.404Z,63.54
2016-04-22T05:05:43.204Z,63.45
2016-04-22T05:06:43.191Z,63.07
2016-04-22T05:07:43.193Z,63.26
2016-04-22T05:08:43.399Z,63.07
2016-04-22T05:09:43.184Z,62.49
2016-04-22T05:10:43.187Z,62.68
2016-04-22T05:11:43.174Z,62.59
2016-04-22T05:12:43.192Z,61.67
2016-04-22T05:13:43.226Z,61.1
2016-04-22T05:14:43.182Z,61.29
2016-04-22T05:15:43.169Z,60.81
2016-04-22T05:16:43.187Z,60.05
2016-04-22T05:17:43.174Z,59.67
2016-04-22T05:18:43.162Z,59.41
2016-04-22T05:19:43.165Z,58.65
2016-04-22T05:20:43.167Z,59.12
2016-04-22T05:21:43.170Z,58.68
2016-04-22T05:22:43.173Z,58.11
2016-04-22T05:23:43.159Z,57.18
2016-04-22T05:24:43.178Z,56.7
2016-04-22T05:25:43.164Z,56.32
2016-04-22T05:27:44.170Z,55.01
2016-04-22T05:28:43.204Z,54.47
2016-04-22T05:29:43.503Z,53.41
2016-04-22T05:30:43.444Z,53.8
2016-04-22T05:31:43.322Z,52.87
2016-04-22T05:32:43.168Z,52.01
2016-04-22T05:33:43.171Z,51.56
2016-04-22T05:34:43.174Z,51.46
2016-04-22T05:35:43.941Z,51.01
2016-04-22T05:37:43.197Z,49.66
2016-04-22T05:38:43.185Z,49.02
2016-04-22T05:39:43.656Z,46.03
2016-04-22T05:40:43.189Z,46.03
2016-04-22T05:41:43.193Z,47.44
2016-04-22T05:42:43.491Z,47.34
2016-04-22T05:43:43.213Z,46.7
2016-04-22T05:44:43.201Z,46.61
2016-04-22T05:45:43.203Z,46.03
2016-04-22T05:46:43.190Z,46.41
2016-04-22T05:47:43.209Z,45.84
2016-04-22T05:48:43.211Z,43.73
2016-04-22T05:49:43.214Z,43.16
2016-04-22T05:50:43.200Z,43.62
2016-04-22T05:51:43.219Z,43.71
2016-04-22T05:52:43.222Z,43.43
2016-04-22T05:53:43.224Z,43.33
2016-04-22T05:54:43.242Z,42.85
2016-04-22T05:55:43.230Z,42.56
2016-04-22T05:56:43.248Z,42.47
2016-04-22T05:57:43.235Z,42.66
2016-04-22T05:58:43.254Z,42.66
2016-04-22T05:59:43.256Z,42.37
2016-04-22T06:00:43.259Z,42.01
2016-04-22T06:01:43.261Z,41.72
2016-04-22T06:02:43.280Z,41.63
2016-04-22T06:03:43.267Z,41.44
2016-04-22T06:04:43.286Z,41.53
2016-04-22T06:05:43.288Z,41.53
2016-04-22T06:06:43.291Z,41.63
2016-04-22T06:07:43.294Z,40.77
2016-04-22T06:08:43.312Z,40.86
2016-04-22T06:09:43.298Z,40.84
2016-04-22T06:10:43.301Z,41.13
2016-04-22T06:11:43.288Z,41.58
2016-04-22T06:12:43.307Z,41.87
2016-04-22T06:13:57.481Z,42.44
2016-04-22T06:14:43.313Z,41.68
2016-04-22T06:15:43.314Z,41.49
2016-04-22T06:16:43.317Z,42.07
2016-04-22T06:17:43.320Z,41.11
2016-04-22T06:18:43.917Z,41.3
2016-04-22T06:19:43.309Z,41.49
2016-04-22T06:20:43.422Z,41.47
2016-04-22T06:21:43.331Z,41.66
2016-04-22T06:22:44.427Z,42.5
2016-04-22T06:23:43.320Z,42.21
2016-04-22T06:24:43.620Z,42.4
2016-04-22T06:25:43.545Z,42.69
2016-04-22T06:26:43.329Z,42.88
2016-04-22T06:27:43.644Z,43.24
2016-04-22T06:28:43.334Z,43.53
2016-04-22T06:29:43.399Z,43.72
2016-04-22T06:30:43.325Z,44.17
2016-04-22T06:31:43.327Z,44.17
2016-04-22T06:32:43.330Z,44.56
2016-04-22T06:33:43.348Z,44.84
2016-04-22T06:34:43.335Z,44.92
2016-04-22T06:35:43.353Z,45.2
2016-04-22T06:36:43.341Z,45.78
2016-04-22T06:37:43.343Z,45.97
2016-04-22T06:38:43.346Z,46.25
2016-04-22T06:39:43.394Z,46.34
2016-04-22T06:40:43.335Z,46.34
2016-04-22T06:41:43.338Z,45.97
2016-04-22T06:42:43.340Z,45.78
2016-04-22T06:43:43.343Z,45.58
2016-04-22T06:44:43.315Z,45.79
2016-04-22T06:45:43.333Z,45.22
2016-04-22T06:46:44.179Z,45.03
2016-04-22T06:47:43.526Z,44.77
2016-04-22T06:48:44.123Z,44.38
2016-04-22T06:49:43.844Z,44.01
2016-04-22T06:50:43.331Z,43.91
2016-04-22T06:51:43.693Z,43.62
2016-04-22T06:52:43.351Z,42.57
2016-04-22T06:53:43.355Z,42.67
2016-04-22T06:54:43.341Z,43.22
2016-04-22T06:55:43.953Z,43.89
2016-04-22T06:56:43.925Z,44.06
2016-04-22T06:57:43.334Z,44.44
2016-04-22T06:58:44.337Z,44.73
2016-04-22T06:59:43.340Z,44.46
2016-04-22T07:00:43.342Z,44.27
2016-04-22T07:01:43.625Z,44.01
2016-04-22T07:02:43.331Z,43.05
2016-04-22T07:03:43.334Z,42.19
2016-04-22T07:04:43.337Z,41.52
2016-04-22T07:05:45.214Z,41.14
2016-04-22T07:06:43.327Z,41.33
2016-04-22T07:07:43.345Z,41.5
2016-04-22T07:08:43.347Z,41.69
2016-04-22T07:09:43.350Z,41.5
2016-04-22T07:10:43.338Z,41.79
2016-04-22T07:11:43.356Z,42.15
2016-04-22T07:12:43.328Z,42.82
2016-04-22T07:13:43.346Z,43.1
2016-04-22T07:14:43.333Z,43.13
2016-04-22T07:15:43.351Z,42.65
2016-04-22T07:16:43.338Z,41.62
2016-04-22T07:17:43.357Z,41.24
2016-04-22T07:18:43.343Z,40.88
2016-04-22T07:19:43.346Z,40.69
2016-04-22T07:20:43.349Z,40.89
2016-04-22T07:21:43.351Z,40.06
2016-04-22T07:22:43.370Z,38.93
2016-04-22T07:23:43.357Z,38.47
2016-04-22T07:24:43.344Z,37.7
2016-04-22T07:25:43.378Z,37.7
2016-04-22T07:26:43.365Z,37.51
2016-04-22T07:27:43.367Z,36.84
2016-04-22T07:28:43.370Z,37.13
2016-04-22T07:29:43.389Z,37.23
2016-04-22T07:30:43.376Z,37.32
2016-04-22T07:31:57.582Z,37.23
2016-04-22T07:32:43.397Z,37.3
2016-04-22T07:33:43.383Z,37.68
2016-04-22T07:34:57.778Z,37.51
2016-04-22T07:35:43.405Z,37.23
2016-04-22T07:36:43.408Z,37.05
2016-04-22T07:37:43.411Z,36.96
2016-04-22T07:38:43.428Z,35.63
2016-04-22T07:39:43.447Z,35.46
2016-04-22T07:40:43.450Z,34.42
2016-04-22T07:41:44.046Z,33.84
2016-04-22T07:42:44.502Z,33.77
2016-04-22T07:43:43.458Z,32.92
2016-04-22T07:44:43.476Z,33.11
2016-04-22T07:45:43.822Z,32.75
2016-04-22T07:46:44.044Z,30.74
2016-04-22T07:47:43.859Z,28.92
2016-04-22T07:48:43.815Z,28.15
2016-04-22T07:49:43.521Z,28.92
2016-04-22T07:50:43.539Z,28.92
2016-04-22T07:51:43.542Z,29.61
2016-04-22T07:52:43.560Z,27.69
2016-04-22T07:53:43.562Z,26.35
2016-04-22T07:54:43.581Z,25.18
2016-04-22T07:55:43.599Z,25.74
2016-04-22T07:56:43.618Z,26.04
2016-04-22T07:57:43.621Z,27
2016-04-22T07:58:43.624Z,27.01
2016-04-22T07:59:43.657Z,26.45
2016-04-22T08:00:43.676Z,25.4
2016-04-22T08:01:43.694Z,24.92
2016-04-22T08:02:43.696Z,24.54
2016-04-22T08:04:45.124Z,25.11
2016-04-22T08:05:43.985Z,24.74
2016-04-22T08:06:44.833Z,24.66
2016-04-22T08:07:44.647Z,24.37
2016-04-22T08:08:43.869Z,24.48
2016-04-22T08:09:43.809Z,24.28
2016-04-22T08:10:43.811Z,24.2
2016-04-22T08:11:43.830Z,24.29
2016-04-22T08:12:43.849Z,24.21
2016-04-22T08:13:45.944Z,24.11
2016-04-22T08:14:43.885Z,23.93
2016-04-22T08:15:43.888Z,23.93
2016-04-22T08:16:44.577Z,23.55
2016-04-22T08:17:43.924Z,23.05
2016-04-22T08:18:43.927Z,23.15
2016-04-22T08:19:43.946Z,22.94
2016-04-22T08:20:43.979Z,22.56
2016-04-22T08:21:43.982Z,21.88
2016-04-22T08:22:43.985Z,21.67
2016-04-22T08:23:44.018Z,22.14
2016-04-22T08:24:44.068Z,22.8
2016-04-22T08:25:44.055Z,22.42
2016-04-22T08:26:44.042Z,22.5
2016-04-22T08:27:44.060Z,23.06
2016-04-22T08:28:44.079Z,24.29
2016-04-22T08:29:44.081Z,24.28
2016-04-22T08:30:44.115Z,24.75
2016-04-22T08:31:44.118Z,25.23
2016-04-22T08:32:44.136Z,25.61
2016-04-22T08:33:44.155Z,25.89
2016-04-22T08:34:44.158Z,26.18
2016-04-22T08:35:44.160Z,26.35
2016-04-22T08:36:44.179Z,27.03
2016-04-22T08:37:44.166Z,27.31
2016-04-22T08:38:44.183Z,27.6
2016-04-22T08:39:44.186Z,28.46
2016-04-22T08:40:44.205Z,28.92
2016-04-22T08:41:44.208Z,29.41
2016-04-22T08:42:44.226Z,29.5
2016-04-22T08:43:44.228Z,29.68
2016-04-22T08:44:44.247Z,29.97
2016-04-22T08:45:44.250Z,29.68
2016-04-22T08:46:44.252Z,29.97
2016-04-22T08:47:44.271Z,30.35
2016-04-22T08:48:44.274Z,30.54
2016-04-22T08:49:44.260Z,30.54
2016-04-22T08:50:58.451Z,29.77
2016-04-22T08:51:44.765Z,30.22
2016-04-22T08:52:44.785Z,30.99
2016-04-22T08:53:44.287Z,31.55
2016-04-22T08:54:44.290Z,32.01
2016-04-22T08:55:44.293Z,32.2
2016-04-22T08:56:44.279Z,32.58
2016-04-22T08:57:44.297Z,32.97
2016-04-22T08:58:44.284Z,32.78
2016-04-22T08:59:44.335Z,32.87
2016-04-22T09:00:44.290Z,33.54
2016-04-22T09:01:44.902Z,33.54
2016-04-22T09:02:44.795Z,33.64
2016-04-22T09:03:44.298Z,33.64
2016-04-22T09:04:44.817Z,34.2
2016-04-22T09:05:44.303Z,34.2
2016-04-22T09:06:44.306Z,34.49
2016-04-22T09:07:44.309Z,34.49
2016-04-22T09:08:44.296Z,34.3
2016-04-22T09:09:44.314Z,34.11
2016-04-22T09:10:44.301Z,33.92
2016-04-22T09:11:44.319Z,34.2
2016-04-22T09:12:44.306Z,34.19
2016-04-22T09:13:44.308Z,34.86
2016-04-22T09:14:44.311Z,35.33
2016-04-22T09:15:44.315Z,35.43
2016-04-22T09:16:44.317Z,35.82
2016-04-22T09:17:44.320Z,36.1
2016-04-22T09:18:44.307Z,36.41
2016-04-22T09:19:44.310Z,36.12
2016-04-22T09:20:44.313Z,36.02
2016-04-22T09:21:44.315Z,35.64
2016-04-22T09:23:44.828Z,34.61
2016-04-22T09:24:44.314Z,34.3
2016-04-22T09:25:44.317Z,34.69
2016-04-22T09:26:44.320Z,35.05
2016-04-22T09:27:45.088Z,34.86
2016-04-22T09:28:44.326Z,35.33
2016-04-22T09:29:44.359Z,35.53
2016-04-22T09:30:44.455Z,35.33
2016-04-22T09:31:44.303Z,35.33
2016-04-22T09:32:45.649Z,35.72
2016-04-22T09:33:45.635Z,35.55
2016-04-22T09:34:44.747Z,35.64
2016-04-22T09:35:44.314Z,35.85
2016-04-22T09:36:44.316Z,36.33
2016-04-22T09:37:44.320Z,36.33
2016-04-22T09:38:44.478Z,36.71
2016-04-22T09:39:44.309Z,36.61
2016-04-22T09:40:44.327Z,36.23
2016-04-22T09:41:44.314Z,35.66
2016-04-22T09:42:44.317Z,35.57
2016-04-22T09:43:44.319Z,35.66
2016-04-22T09:44:44.322Z,35.47
2016-04-22T09:45:44.325Z,35.47
2016-04-22T09:46:44.313Z,35.57
2016-04-22T09:47:44.331Z,35.47
2016-04-22T09:48:44.318Z,35.37
2016-04-22T09:49:44.321Z,34.89
2016-04-22T09:50:44.323Z,34.89
2016-04-22T09:51:44.326Z,34.99
2016-04-22T09:52:44.312Z,34.8
2016-04-22T09:53:44.315Z,34.8
2016-04-22T09:54:44.318Z,35.06
2016-04-22T09:55:44.321Z,34.32
2016-04-22T09:56:44.308Z,34.42
2016-04-22T09:57:44.326Z,34.3
2016-04-22T09:58:44.329Z,34.78
2016-04-22T09:59:44.347Z,35.16
2016-04-22T10:00:44.365Z,35.64
2016-04-22T10:01:44.337Z,35.45
2016-04-22T10:02:44.323Z,35.35
2016-04-22T10:03:44.312Z,35.83
2016-04-22T10:04:44.328Z,35.74
2016-04-22T10:05:44.317Z,35.74
2016-04-22T10:06:44.319Z,35.45
2016-04-22T10:07:44.322Z,35.55
2016-04-22T10:13:41.274Z,35.16
2016-04-22T10:14:40.590Z,34.59
2016-04-22T10:15:40.515Z,34.49
2016-04-22T10:16:40.533Z,34.59
2016-04-22T10:17:40.551Z,34.78
2016-04-22T10:18:40.523Z,35.14
2016-04-22T10:19:40.541Z,35.35
2016-04-22T10:20:40.591Z,35.45
2016-04-22T10:21:40.531Z,34.78
2016-04-22T10:22:41.221Z,34.97
2016-04-22T10:23:40.536Z,35.35
2016-04-22T10:24:40.554Z,35.26
2016-04-22T10:25:40.526Z,34.2
2016-04-22T10:26:40.528Z,34.3
2016-04-22T10:27:40.515Z,34.4
2016-04-22T10:28:40.518Z,34.78
2016-04-22T10:29:40.521Z,34.3
2016-04-22T10:30:40.523Z,34.49
2016-04-22T10:31:40.526Z,34.97
2016-04-22T10:32:40.514Z,35.26
2016-04-22T10:33:40.532Z,35.16
2016-04-22T10:34:40.520Z,35.64
2016-04-22T10:35:40.537Z,35.64
2016-04-22T10:36:40.539Z,36.12
2016-04-22T10:37:40.542Z,36.29
2016-04-22T10:38:40.514Z,36.5
2016-04-22T10:39:40.533Z,36.6
2016-04-22T10:40:40.519Z,35.06
2016-04-22T10:41:41.303Z,34.28
2016-04-22T10:42:41.338Z,34.19
2016-04-22T10:43:41.372Z,34.19
2016-04-22T10:44:40.530Z,34.48
2016-04-22T10:45:40.502Z,34.19
2016-04-22T10:46:40.519Z,34.57
2016-04-22T10:47:40.929Z,34.3
2016-04-22T10:48:40.525Z,34.2
2016-04-22T10:49:40.512Z,34.49
2016-04-22T10:50:40.530Z,34.49
2016-04-22T10:52:42.082Z,34.42
2016-04-22T10:53:41.101Z,34.7
2016-04-22T10:54:41.416Z,34.51
2016-04-22T10:55:40.528Z,34.61
2016-04-22T10:56:40.515Z,34.13
2016-04-22T10:57:40.674Z,34.22
2016-04-22T10:58:40.520Z,34.13
2016-04-22T10:59:40.554Z,34.22
2016-04-22T11:00:40.511Z,34.03
2016-04-22T11:01:39.795Z,34.22
2016-04-22T11:02:40.516Z,34.13
2016-04-22T11:03:40.519Z,33.65
2016-04-22T11:04:40.521Z,34.11
2016-04-22T11:05:40.509Z,34.2
2016-04-22T11:06:40.512Z,34.2
2016-04-22T11:07:40.514Z,34.4
2016-04-22T11:08:40.516Z,34.49
2016-04-22T11:09:40.519Z,34.78
2016-04-22T11:10:40.506Z,34.3
2016-04-22T11:11:40.508Z,34.97
2016-04-22T11:12:40.511Z,35.16
2016-04-22T11:13:40.514Z,35.55
2016-04-22T11:14:40.517Z,35.64
2016-04-22T11:15:40.519Z,35.35
2016-04-22T11:16:40.507Z,35.45
2016-04-22T11:17:40.509Z,35.26
2016-04-22T11:18:40.512Z,34.2
2016-04-22T11:19:40.515Z,33.81
2016-04-22T11:20:40.518Z,34.19
2016-04-22T11:21:40.575Z,34.28
2016-04-22T11:22:40.389Z,34.38
2016-04-22T11:23:40.517Z,34.09
2016-04-22T11:24:40.489Z,34.19
2016-04-22T11:25:40.506Z,34.09
2016-04-22T11:26:40.494Z,34.38
2016-04-22T11:27:40.497Z,34.77
2016-04-22T11:28:40.640Z,35.43
2016-04-22T11:29:41.533Z,35.43
2016-04-22T11:30:40.505Z,35.62
2016-04-22T11:31:40.492Z,35.82
2016-04-22T11:32:40.495Z,35.72
2016-04-22T11:33:40.731Z,35.53
2016-04-22T11:34:40.499Z,35.72
2016-04-22T11:35:40.472Z,35.53
2016-04-22T11:36:40.489Z,35.72
2016-04-22T11:37:40.476Z,35.91
2016-04-22T11:38:40.479Z,35.53
2016-04-22T11:39:40.482Z,35.14
2016-04-22T11:40:40.500Z,35.43
2016-04-22T11:41:40.674Z,35.62
2016-04-22T11:42:41.083Z,35.43
2016-04-22T11:43:40.493Z,35.14
2016-04-22T11:44:40.464Z,35.14
2016-04-22T11:45:40.482Z,34.86
2016-04-22T11:46:40.484Z,34.19
2016-04-22T11:47:40.487Z,34.48
2016-04-22T11:48:40.474Z,34.09
2016-04-22T11:49:40.477Z,34.17
2016-04-22T11:50:40.479Z,34.08
2016-04-22T11:51:40.467Z,34.75
2016-04-22T11:52:40.470Z,34.75
2016-04-22T11:53:40.488Z,34.94
2016-04-22T11:54:40.459Z,35.51
2016-04-22T11:55:40.478Z,35.6
2016-04-22T11:56:40.464Z,35.8
2016-04-22T11:57:40.453Z,35.7
2016-04-22T11:58:40.455Z,35.7
2016-04-22T11:59:40.458Z,35.41
2016-04-22T12:00:41.742Z,34.84
2016-04-22T12:01:40.463Z,34.75
2016-04-22T12:02:40.981Z,34.46
2016-04-22T12:03:40.844Z,34.36
2016-04-22T12:04:40.455Z,33.6
2016-04-22T12:05:41.083Z,33.12
2016-04-22T12:06:40.445Z,32.55
2016-04-22T12:07:40.447Z,33.03
2016-04-22T12:08:40.435Z,32.74
2016-04-22T12:09:41.078Z,33.12
2016-04-22T12:10:41.533Z,32.74
2016-04-22T12:11:40.818Z,33.41
2016-04-22T12:12:40.492Z,33.79
2016-04-22T12:13:40.448Z,33.89
2016-04-22T12:14:40.435Z,33.79
2016-04-22T12:15:41.016Z,33.89
2016-04-22T12:16:40.425Z,34.08
2016-04-22T12:17:40.428Z,33.98
2016-04-22T12:18:40.462Z,34.46
2016-04-22T12:19:40.934Z,34.17
2016-04-22T12:20:40.422Z,34.48
2016-04-22T12:21:40.315Z,33.98
2016-04-22T12:22:40.428Z,33.7
2016-04-22T12:23:40.445Z,34
2016-04-22T12:24:40.417Z,33.52
2016-04-22T12:25:40.419Z,32.84
2016-04-22T12:26:40.422Z,32.93
2016-04-22T12:27:40.410Z,33.03
2016-04-22T12:28:40.413Z,32.84
2016-04-22T12:29:40.400Z,32.84
2016-04-22T12:30:40.402Z,33.03
2016-04-22T12:31:40.405Z,32.93
2016-04-22T12:32:40.407Z,32.26
2016-04-22T12:33:40.410Z,32.07
2016-04-22T12:34:40.413Z,32.17
2016-04-22T12:35:40.400Z,32.26
2016-04-22T12:36:40.403Z,32.65
2016-04-22T12:37:40.405Z,33.12
2016-04-22T12:38:40.393Z,33.5
2016-04-22T12:39:40.927Z,33.79
2016-04-22T12:40:40.382Z,33.79
2016-04-22T12:41:40.385Z,34.17
2016-04-22T12:42:40.387Z,34.17
2016-04-22T12:43:40.390Z,34.28
2016-04-22T12:44:40.393Z,34.27
2016-04-22T12:45:40.379Z,34.08
2016-04-22T12:46:40.382Z,34.17
2016-04-22T12:47:40.384Z,34.17
2016-04-22T12:48:41.434Z,33.5
2016-04-22T12:49:40.390Z,32.65
2016-04-22T12:50:40.378Z,32.17
2016-04-22T12:51:41.020Z,31.79
2016-04-22T12:52:40.399Z,30.74
2016-04-22T12:53:40.370Z,31.12
2016-04-22T12:54:40.372Z,31.88
2016-04-22T12:55:40.375Z,32.55
2016-04-22T12:56:41.488Z,32.45
2016-04-22T12:57:40.350Z,32.26
2016-04-22T12:58:40.353Z,32.36
2016-04-22T12:59:54.606Z,32.26
2016-04-22T13:00:40.342Z,32.45
2016-04-22T13:01:40.360Z,32.65
2016-04-22T13:02:40.363Z,32.65
2016-04-22T13:03:40.366Z,33.31
2016-04-22T13:04:40.353Z,33.03
2016-04-22T13:05:40.360Z,32.95